Latest Weather Observations for Dennes Point

IDT60901

Issued at 11:11 pm EST Thursday 2 July 2020 (issued every 10 minutes, with the page automatically refreshed every 10 minutes)

About weather observations | Map of Hobart area stations | Latest observations for Hobart area | Other Formats
Station Details ID: 094255 Name: DENNES POINT Lat: -43.06 Lon: 147.36 Height: 5.67 m
Data from the previous 72 hours. | See also: Recent months at Dennes Point
Date/Time
EST
Temp
°C
App
Temp
°C
Dew
Point
°C
Rel
Hum
%
Delta-T
°C
Wind Press
QNH
hPa
Press
MSL
hPa
Rain since
9am
mm
Dir  Spd
km/h
Gust
km/h
Spd
kts
Gust
kts
02/11:00pm 9.9 6.2 4.7 70 2.3 NW 13 19 7 10 1005.8 1005.8 0.0
02/10:30pm 10.0 5.9 4.2 67 2.6 WNW 15 22 8 12 1005.6 1005.6 0.0
02/10:00pm 10.5 6.8 4.4 66 2.7 NW 13 20 7 11 1005.3 1005.3 0.0
02/09:30pm 9.8 4.9 5.2 73 2.1 W 20 28 11 15 1005.1 1005.1 0.0
02/09:00pm 9.5 4.2 4.9 73 2.1 W 22 26 12 14 1004.5 1004.5 0.0
02/08:30pm 10.4 5.6 4.5 67 2.6 WNW 19 24 10 13 1004.8 1004.8 0.0
02/08:00pm 10.5 4.1 5.1 69 2.5 WNW 28 35 15 19 1003.9 1003.9 0.0
02/07:30pm 10.8 3.9 4.5 65 2.8 WNW 30 43 16 23 1003.4 1003.4 0.0
02/07:00pm 10.5 6.1 4.6 67 2.7 WNW 17 26 9 14 1003.2 1003.2 0.0
02/06:30pm 10.8 6.5 5.1 68 2.6 NW 17 24 9 13 1002.9 1002.9 0.0
02/06:00pm 10.8 6.4 4.9 67 2.7 NW 17 30 9 16 1002.5 1002.5 0.0
02/05:30pm 11.0 6.9 6.2 72 2.2 NNW 17 20 9 11 1002.5 1002.5 0.0
02/05:00pm 11.4 7.4 4.8 64 3.0 NW 15 19 8 10 1002.1 1002.1 0.0
02/04:30pm 11.5 7.1 4.5 62 3.2 NW 17 26 9 14 1001.6 1001.7 0.0
02/04:00pm 12.0 6.9 4.2 59 3.5 NW 20 28 11 15 1001.1 1001.2 0.0
02/03:30pm 12.6 9.2 3.8 55 3.9 WNW 11 20 6 11 1000.9 1001.0 0.0
02/03:00pm 12.2 7.5 3.4 55 3.9 WNW 17 28 9 15 1000.8 1000.9 0.0
02/02:30pm 12.3 6.9 4.5 59 3.5 NW 22 35 12 19 1000.5 1000.6 0.0
02/02:00pm 12.1 6.3 4.3 59 3.5 WNW 24 30 13 16 999.9 1000.0 0.0
02/01:30pm 12.5 5.6 4.5 58 3.6 W 30 43 16 23 999.9 1000.0 0.0
02/01:27pm 12.5 5.1 4.2 57 3.8 W 32 52 17 28 999.8 999.9 0.0
02/01:00pm 12.6 5.2 4.1 56 3.9 WNW 32 44 17 24 999.8 999.9 0.0
02/12:30pm 12.5 8.0 6.3 66 2.9 W 19 28 10 15 999.7 999.8 0.0
02/12:00pm 11.6 6.4 5.5 66 2.8 W 22 35 12 19 999.3 999.4 0.0
02/11:30am 11.4 7.7 6.5 72 2.3 WSW 15 28 8 15 999.2 999.3 0.0
02/11:00am 10.9 6.9 6.5 74 2.1 W 17 22 9 12 999.1 999.2 0.0
02/10:30am 10.1 8.9 6.6 79 1.6 E 2 6 1 3 999.1 999.2 0.0
02/10:00am 10.0 8.5 6.7 80 1.6 N 4 7 2 4 998.9 999.0 0.0
02/09:30am 10.1 8.0 6.8 80 1.6 NNW 7 9 4 5 998.8 998.9 0.0
02/09:00am 9.7 7.5 6.4 80 1.5 W 7 9 4 5 998.1 998.2 2.2
02/08:30am 10.1 7.6 6.6 79 1.6 NW 9 11 5 6 998.7 998.8 2.2
02/08:00am 10.1 8.3 7.3 83 1.3 NNW 6 9 3 5 998.3 998.4 2.2
02/07:30am 10.1 5.3 7.3 83 1.3 WNW 22 30 12 16 998.7 998.8 1.8
02/07:00am 10.9 8.2 8.8 87 1.0 N 13 17 7 9 998.3 998.4 1.0
02/06:30am 11.2 8.4 8.6 84 1.3 N 13 15 7 8 998.2 998.3 0.6
02/06:00am 11.5 7.0 8.4 81 1.5 N 22 24 12 13 998.0 998.1 0.2
02/05:30am 11.6 5.9 8.3 80 1.6 N 28 33 15 18 997.7 997.8 0.2
02/05:00am 11.6 5.8 7.9 78 1.8 NNE 28 33 15 18 998.0 998.1 0.2
02/04:30am 12.0 6.5 7.5 74 2.2 NNE 26 32 14 17 998.5 998.6 0.2
02/04:00am 11.9 7.2 7.8 76 2.0 NNE 22 30 12 16 998.9 999.0 0.2
02/03:30am 10.8 6.5 7.7 81 1.5 NNE 20 24 11 13 999.4 999.5 0.2
02/03:00am 12.2 7.0 7.3 72 2.4 N 24 33 13 18 1000.3 1000.4 0.0
02/02:30am 10.9 6.7 7.6 80 1.6 N 19 26 10 14 1001.5 1001.6 0.0
02/02:00am 10.5 6.3 7.4 81 1.5 N 19 24 10 13 1001.4 1001.5 0.0
02/01:30am 11.2 6.8 7.5 78 1.8 NE 20 26 11 14 1001.4 1001.5 0.0
02/01:00am 11.1 6.0 7.8 80 1.6 N 24 30 13 16 1001.8 1001.9 0.0
02/12:30am 10.7 7.0 7.9 83 1.4 N 17 24 9 13 1002.3 1002.3 0.0
02/12:00am 10.9 6.0 7.0 77 1.9 E 22 30 12 16 1003.1 1003.1 0.0
 
Date/Time
EST
Temp
°C
App
Temp
°C
Dew
Point
°C
Rel
Hum
%
Delta-T
°C
Wind Press
QNH
hPa
Press
MSL
hPa
Rain since
9am
mm
Dir  Spd
km/h
Gust
km/h
Spd
kts
Gust
kts
01/11:30pm 10.9 6.0 6.8 76 1.9 ESE 22 32 12 17 1003.7 1003.7 0.0
01/11:00pm 10.8 6.9 6.9 77 1.9 E 17 22 9 12 1004.5 1004.5 0.0
01/10:30pm 10.6 7.1 7.1 79 1.7 ENE 15 20 8 11 1004.9 1004.9 0.0
01/10:00pm 10.6 7.5 7.3 80 1.6 ENE 13 22 7 12 1005.1 1005.1 0.0
01/09:30pm 10.8 6.9 7.3 79 1.7 NE 17 20 9 11 1005.5 1005.5 0.0
01/09:00pm 10.5 8.1 7.0 79 1.7 E 9 13 5 7 1006.1 1006.1 0.0
01/08:30pm 10.7 8.6 6.8 77 1.8 ENE 7 13 4 7 1006.6 1006.6 0.0
01/08:00pm 10.9 8.5 7.0 77 1.9 ENE 9 13 5 7 1006.8 1006.8 0.0
01/07:30pm 11.5 6.8 7.6 77 1.9 NNE 22 26 12 14 1007.0 1007.0 0.0
01/07:00pm 11.7 6.3 7.8 77 1.9 NNE 26 32 14 17 1006.9 1006.9 0.0
01/06:30pm 11.7 7.4 7.8 77 1.9 NNE 20 28 11 15 1007.1 1007.1 0.0
01/06:00pm 11.1 8.1 7.6 79 1.7 ENE 13 17 7 9 1007.3 1007.3 0.0
01/05:30pm 11.2 7.4 7.7 79 1.7 NE 17 20 9 11 1007.6 1007.6 0.0
01/05:00pm 11.2 7.1 7.9 80 1.6 NE 19 22 10 12 1007.8 1007.8 0.0
01/04:30pm 11.0 7.7 7.9 81 1.5 NE 15 17 8 9 1008.1 1008.1 0.0
01/04:00pm 12.1 9.0 7.2 72 2.4 N 13 15 7 8 1008.5 1008.5 0.0
01/03:30pm 12.1 10.4 7.6 74 2.2 NE 6 9 3 5 1008.6 1008.6 0.0
01/03:00pm 13.0 12.4 7.2 68 2.8 CALM 0 7 0 4 1009.0 1009.0 0.0
01/02:30pm 12.5 10.7 7.0 69 2.6 NE 6 7 3 4 1009.3 1009.3 0.0
01/02:00pm 12.2 9.2 7.5 73 2.3 NNE 13 15 7 8 1009.8 1009.8 0.0
01/01:30pm 12.6 9.2 7.5 71 2.5 NNE 15 20 8 11 1010.2 1010.2 0.0
01/01:00pm 11.9 8.9 7.6 75 2.1 NNE 13 19 7 10 1010.7 1010.7 0.0
01/12:30pm 11.1 6.7 6.6 74 2.1 N 19 26 10 14 1011.1 1011.1 0.0
01/12:00pm 10.9 8.1 7.0 77 1.9 NE 11 17 6 9 1011.8 1011.8 0.0
01/11:30am 10.2 5.8 6.7 79 1.6 NNE 19 22 10 12 1012.2 1012.2 0.0
01/11:00am 9.8 5.1 6.2 78 1.7 N 20 24 11 13 1012.6 1012.6 0.0
01/10:30am 8.7 4.9 6.0 83 1.2 NNE 15 17 8 9 1013.2 1013.2 0.0
01/10:00am 8.7 6.4 5.8 82 1.3 ENE 7 9 4 5 1013.3 1013.3 0.0
01/09:30am 8.3 7.0 5.8 84 1.1 NNE 2 7 1 4 1013.6 1013.6 0.0
01/09:00am 7.8 5.7 5.6 86 1.0 NE 6 9 3 5 1013.7 1013.7 0.0
01/08:30am 7.1 4.4 5.4 89 0.8 N 9 13 5 7 1013.8 1013.8 0.0
01/08:00am 7.3 3.9 5.8 90 0.7 N 13 17 7 9 1014.0 1014.0 0.0
01/07:30am 7.2 4.1 5.5 89 0.8 NNE 11 15 6 8 1014.1 1014.1 0.0
01/07:00am 6.3 5.1 4.8 90 0.7 CALM 0 2 0 1 1013.9 1013.9 0.0
01/06:30am 4.9 2.3 3.4 90 0.6 SW 6 9 3 5 1013.8 1013.8 0.0
01/06:00am 7.4 5.2 5.4 87 0.9 N 6 7 3 4 1013.7 1013.7 0.0
01/05:30am 7.7 4.3 5.8 88 0.9 NNE 13 15 7 8 1013.8 1013.8 0.0
01/05:00am 7.1 6.0 4.9 86 1.0 CALM 0 0 0 0 1013.9 1013.9 0.0
01/04:30am 6.2 4.5 4.0 86 0.9 NW 2 9 1 5 1013.9 1013.9 0.0
01/04:00am 7.9 5.8 5.7 86 1.0 NNE 6 7 3 4 1014.0 1014.0 0.0
01/03:30am 7.9 5.7 5.5 85 1.1 NNE 6 9 3 5 1014.1 1014.1 0.0
01/03:00am 7.1 5.6 4.8 85 1.0 WNW 2 6 1 3 1014.4 1014.4 0.0
01/02:30am 8.3 6.0 5.8 84 1.1 NNE 7 9 4 5 1014.6 1014.6 0.0
01/02:00am 8.8 5.8 5.9 82 1.3 N 11 13 6 7 1014.5 1014.5 0.0
01/01:30am 7.8 5.6 5.3 84 1.1 ENE 6 13 3 7 1014.5 1014.5 0.0
01/01:00am 8.2 5.1 5.5 83 1.2 NNE 11 15 6 8 1014.6 1014.6 0.0
01/12:30am 8.3 6.0 5.9 85 1.1 NNE 7 13 4 7 1014.9 1014.9 0.0
01/12:00am 8.8 6.0 6.8 87 0.9 N 11 13 6 7 1015.0 1015.0 0.0
 
Date/Time
EST
Temp
°C
App
Temp
°C
Dew
Point
°C
Rel
Hum
%
Delta-T
°C
Wind Press
QNH
hPa
Press
MSL
hPa
Rain since
9am
mm
Dir  Spd
km/h
Gust
km/h
Spd
kts
Gust
kts
30/11:30pm 9.1 7.0 6.7 85 1.1 NNE 7 9 4 5 1015.2 1015.2 0.0
30/11:00pm 9.1 7.2 6.5 84 1.2 ENE 6 7 3 4 1015.3 1015.3 0.0
30/10:30pm 9.4 7.8 6.3 81 1.4 NNW 4 7 2 4 1015.4 1015.4 0.0
30/10:00pm 8.6 7.3 5.9 83 1.2 NW 2 4 1 2 1015.3 1015.3 0.0
30/09:30pm 9.6 7.2 6.9 83 1.3 N 9 11 5 6 1015.2 1015.2 0.0
30/09:00pm 10.1 6.9 7.0 81 1.5 NE 13 15 7 8 1015.1 1015.1 0.0
30/08:30pm 10.7 6.7 6.5 75 2.0 NNE 17 19 9 10 1015.2 1015.2 0.0
30/08:00pm 10.5 6.6 7.2 80 1.6 NNE 17 20 9 11 1015.3 1015.3 0.0
30/07:30pm 10.3 8.2 6.6 78 1.7 NNW 7 11 4 6 1015.3 1015.3 0.0
30/07:00pm 9.9 8.4 6.6 80 1.5 NNW 4 9 2 5 1015.4 1015.4 0.0
30/06:30pm 10.3 8.7 6.3 76 1.9 N 4 7 2 4 1015.5 1015.5 0.0
30/06:00pm 10.2 6.6 6.9 80 1.6 NNE 15 17 8 9 1015.3 1015.3 0.0
30/05:30pm 10.0 7.1 6.5 79 1.6 ENE 11 17 6 9 1014.8 1014.8 0.0
30/05:00pm 9.7 7.1 6.1 78 1.7 ENE 9 13 5 7 1015.0 1015.0 0.0
30/04:30pm 10.1 7.2 6.3 77 1.8 ENE 11 13 6 7 1015.5 1015.5 0.0
30/04:00pm 10.0 7.8 6.0 76 1.8 NNE 7 9 4 5 1015.7 1015.7 0.0
30/03:30pm 10.3 7.8 6.6 78 1.7 NE 9 11 5 6 1015.8 1015.8 0.0
30/03:00pm 10.9 8.2 7.2 78 1.8 NE 11 13 6 7 1015.8 1015.8 0.0
30/02:30pm 10.3 6.8 5.5 72 2.2 NE 13 15 7 8 1016.2 1016.2 0.0
30/02:00pm 10.6 6.7 5.4 70 2.4 NE 15 20 8 11 1016.5 1016.5 0.0
30/01:30pm 10.4 5.6 5.4 71 2.3 NE 20 24 11 13 1017.1 1017.1 0.0
30/01:00pm 10.2 4.0 6.2 76 1.9 NNE 28 33 15 18 1017.2 1017.2 0.0
30/12:30pm 10.0 3.4 6.2 77 1.8 NNE 30 35 16 19 1017.5 1017.5 0.0
30/12:00pm 9.6 3.0 6.0 78 1.7 NNE 30 35 16 19 1018.1 1018.1 0.0
30/11:30am 9.5 2.3 6.0 79 1.6 N 33 39 18 21 1018.6 1018.6 0.0
30/11:00am 9.4 2.9 6.3 81 1.4 N 30 35 16 19 1019.0 1019.0 0.0
30/10:30am 8.9 2.7 6.0 82 1.3 NNE 28 32 15 17 1019.6 1019.6 0.0
30/10:00am 8.5 2.6 6.0 84 1.1 N 26 30 14 16 1019.8 1019.8 0.0
30/09:30am 7.1 4.0 5.4 89 0.8 NW 11 33 6 18 1019.9 1019.9 0.0
30/09:00am 6.5 4.1 4.5 87 0.9 WNW 6 17 3 9 1020.3 1020.3 0.4
30/08:30am 7.1 4.4 5.6 90 0.7 NW 9 24 5 13 1020.7 1020.7 0.4
30/08:00am 7.6 2.9 6.1 90 0.7 N 20 30 11 16 1021.0 1021.0 0.4
30/07:30am 7.3 2.2 6.1 92 0.5 NNE 22 28 12 15 1021.2 1021.2 0.2
30/07:00am 7.3 1.9 6.2 93 0.5 NNE 24 30 13 16 1021.3 1021.3 0.2
30/06:30am 7.3 2.7 6.4 94 0.4 NNE 20 26 11 14 1021.3 1021.3 0.2
30/06:00am 7.3 1.9 6.4 94 0.4 NNE 24 28 13 15 1021.5 1021.5 0.2
30/05:30am 7.2 1.4 6.3 94 0.4 N 26 32 14 17 1021.4 1021.4 0.2
30/05:00am 7.4 2.0 6.5 94 0.4 NNE 24 30 13 16 1021.7 1021.7 0.2
30/04:30am 7.5 3.5 6.8 95 0.3 NNE 17 20 9 11 1021.9 1021.9 0.2
30/04:00am 5.9 3.4 4.9 93 0.4 W 7 9 4 5 1022.3 1022.3 0.2
30/03:30am 7.7 4.1 6.6 93 0.5 NNE 15 19 8 10 1022.4 1022.4 0.2
30/03:00am 7.7 5.8 6.6 93 0.5 N 6 9 3 5 1022.7 1022.7 0.0
30/02:30am 7.0 6.1 5.9 93 0.5 CALM 0 4 0 2 1023.0 1023.0 0.0
30/02:00am 6.6 5.5 5.2 91 0.6 CALM 0 0 0 0 1023.4 1023.4 0.0
30/01:30am 8.0 5.6 6.8 92 0.6 NE 9 11 5 6 1023.5 1023.5 0.0
30/01:00am 7.7 5.2 6.5 92 0.5 NE 9 11 5 6 1023.8 1023.8 0.0
30/12:30am 7.6 5.7 6.5 93 0.5 ENE 6 9 3 5 1024.0 1024.0 0.0
30/12:00am 7.7 6.5 6.6 93 0.5 SSW 2 4 1 2 1024.2 1024.2 0.0
 
Date/Time
EST
Temp
°C
App
Temp
°C
Dew
Point
°C
Rel
Hum
%
Delta-T
°C
Wind Press
QNH
hPa
Press
MSL
hPa
Rain since
9am
mm
Dir  Spd
km/h
Gust
km/h
Spd
kts
Gust
kts
29/11:30pm 7.3 6.4 6.1 92 0.5 CALM 0 0 0 0 1024.5 1024.5 0.0

Latest Capital City Observations: Canberra | Sydney | Melbourne | Brisbane | Adelaide | Perth | Hobart | Darwin

Other formats

Comma delimited format used in spreadsheet applications
http://www.bom.gov.au/fwo/IDT60901/IDT60901.94988.axf

JavaScript Object Notation format (JSON) in row-major order
http://www.bom.gov.au/fwo/IDT60901/IDT60901.94988.json

Data quality

Most of these data are generated automatically and are frequently updated. Quality checks on data are not normally performed. It is possible for incorrect values to appear. Refer to information at About Latest Weather Observations and please check the disclaimer before using these data.